createdAt,value
2022-09-30T00:00:12.409Z,5.05
2022-09-30T00:02:40.281Z,5.06
2022-09-30T00:05:08.509Z,5.00
2022-09-30T00:07:36.293Z,4.95
2022-09-30T00:10:04.462Z,4.99
2022-09-30T00:12:32.190Z,4.96
2022-09-30T00:15:01.497Z,4.95
2022-09-30T00:17:29.513Z,4.99
2022-09-30T00:19:57.285Z,4.99
2022-09-30T00:22:25.066Z,4.96
2022-09-30T00:24:53.038Z,4.95
2022-09-30T00:27:22.123Z,4.94
2022-09-30T00:29:49.890Z,4.95
2022-09-30T00:32:19.140Z,4.88
2022-09-30T00:34:46.909Z,4.90
2022-09-30T00:37:16.675Z,4.90
2022-09-30T00:39:44.459Z,4.85
2022-09-30T00:42:14.514Z,4.79
2022-09-30T00:44:46.788Z,4.76
2022-09-30T00:47:32.701Z,4.77
2022-09-30T00:50:04.405Z,4.73
2022-09-30T00:52:33.448Z,4.70
2022-09-30T00:55:03.914Z,4.71
2022-09-30T00:57:31.949Z,4.63
2022-09-30T00:59:59.797Z,4.69
2022-09-30T01:02:27.809Z,4.72
2022-09-30T01:04:57.049Z,4.74
2022-09-30T01:07:26.361Z,4.67
2022-09-30T01:09:54.348Z,4.71
2022-09-30T01:12:23.945Z,4.67
2022-09-30T01:14:53.523Z,4.65
2022-09-30T01:17:26.167Z,4.64
2022-09-30T01:20:10.901Z,4.61
2022-09-30T01:22:47.262Z,4.54
2022-09-30T01:25:38.035Z,4.61
2022-09-30T01:28:29.972Z,4.61
2022-09-30T01:31:12.340Z,4.55
2022-09-30T01:33:46.153Z,4.47
2022-09-30T01:36:21.125Z,4.45
2022-09-30T01:38:51.394Z,4.42
2022-09-30T01:41:24.695Z,4.35
2022-09-30T01:43:58.694Z,4.46
2022-09-30T01:46:33.925Z,4.39
2022-09-30T01:49:06.527Z,4.37
2022-09-30T01:51:38.872Z,4.34
2022-09-30T01:54:13.872Z,4.27
2022-09-30T01:56:43.174Z,4.27
2022-09-30T01:59:14.138Z,4.34
2022-09-30T02:01:48.076Z,4.37
2022-09-30T02:04:19.666Z,4.31
2022-09-30T02:06:50.527Z,4.29
2022-09-30T02:09:23.074Z,4.19
2022-09-30T02:11:52.772Z,4.26
2022-09-30T02:14:24.560Z,4.26
2022-09-30T02:16:56.569Z,4.21
2022-09-30T02:19:28.817Z,4.19
2022-09-30T02:22:00.245Z,4.21
2022-09-30T02:24:32.014Z,4.15
2022-09-30T02:27:02.413Z,4.13
2022-09-30T02:29:32.336Z,4.16
2022-09-30T02:32:06.060Z,4.17
2022-09-30T02:34:36.683Z,4.15
2022-09-30T02:37:06.605Z,4.08
2022-09-30T02:39:38.712Z,4.07
2022-09-30T02:42:11.067Z,4.06
2022-09-30T02:44:40.045Z,3.99
2022-09-30T02:47:18.081Z,3.97
2022-09-30T02:49:48.443Z,3.99
2022-09-30T02:52:22.042Z,3.94
2022-09-30T02:54:53.598Z,3.91
2022-09-30T02:57:24.134Z,3.91
2022-09-30T02:59:53.153Z,4.04
2022-09-30T03:02:22.468Z,3.93
2022-09-30T03:04:50.790Z,3.86
2022-09-30T03:07:19.061Z,3.89
2022-09-30T03:09:47.011Z,3.80
2022-09-30T03:12:23.181Z,3.77
2022-09-30T03:15:00.022Z,3.83
2022-09-30T03:17:38.081Z,3.74
2022-09-30T03:20:21.930Z,3.74
2022-09-30T03:23:03.978Z,3.72
2022-09-30T03:25:36.247Z,3.65
2022-09-30T03:28:22.833Z,3.70
2022-09-30T03:30:56.909Z,3.70
2022-09-30T03:33:30.880Z,3.59
2022-09-30T03:36:01.201Z,3.68
2022-09-30T03:38:36.487Z,3.70
2022-09-30T03:41:08.084Z,3.68
2022-09-30T03:43:37.463Z,3.72
2022-09-30T03:46:11.384Z,3.68
2022-09-30T03:48:41.326Z,3.67
2022-09-30T03:51:09.859Z,3.65
2022-09-30T03:53:41.214Z,3.73
2022-09-30T03:56:09.167Z,3.74
2022-09-30T03:58:40.252Z,3.70
2022-09-30T04:01:09.145Z,3.64
2022-09-30T04:03:37.015Z,3.63
2022-09-30T04:06:06.393Z,3.58
2022-09-30T04:08:34.148Z,3.54
2022-09-30T04:11:01.918Z,3.56
2022-09-30T04:13:30.148Z,3.56
2022-09-30T04:15:58.471Z,3.60
2022-09-30T04:18:26.338Z,3.55
2022-09-30T04:20:54.171Z,3.49
2022-09-30T04:23:27.246Z,3.46
2022-09-30T04:25:55.192Z,3.48
2022-09-30T04:28:23.100Z,3.44
2022-09-30T04:30:51.042Z,3.43
2022-09-30T04:33:18.830Z,3.41
2022-09-30T04:35:46.660Z,3.41
2022-09-30T04:38:14.449Z,3.50
2022-09-30T04:40:43.597Z,3.46
2022-09-30T04:43:11.518Z,3.41
2022-09-30T04:45:44.151Z,3.45
2022-09-30T04:48:12.216Z,3.46
2022-09-30T04:50:40.032Z,3.49
2022-09-30T04:53:07.814Z,3.55
2022-09-30T04:55:35.945Z,3.49
2022-09-30T04:58:05.069Z,3.54
2022-09-30T05:00:33.062Z,3.60
2022-09-30T05:03:01.084Z,3.51
2022-09-30T05:05:28.886Z,3.50
2022-09-30T05:08:00.404Z,3.44
2022-09-30T05:10:29.945Z,3.52
2022-09-30T05:12:58.136Z,3.53
2022-09-30T05:15:27.477Z,3.53
2022-09-30T05:17:55.261Z,3.51
2022-09-30T05:20:23.045Z,3.46
2022-09-30T05:22:54.931Z,3.44
2022-09-30T05:25:23.392Z,3.41
2022-09-30T05:27:51.245Z,3.43
2022-09-30T05:30:18.998Z,3.44
2022-09-30T05:32:48.171Z,3.52
2022-09-30T05:35:15.977Z,3.52
2022-09-30T05:37:43.982Z,3.61
2022-09-30T05:40:11.834Z,3.60
2022-09-30T05:42:39.630Z,3.65
2022-09-30T05:45:07.911Z,3.64
2022-09-30T05:47:35.688Z,3.81
2022-09-30T05:50:05.245Z,3.88
2022-09-30T05:52:33.269Z,3.95
2022-09-30T05:55:01.561Z,4.03
2022-09-30T05:57:29.601Z,4.01
2022-09-30T05:59:57.984Z,4.03
2022-09-30T06:02:26.000Z,4.09
2022-09-30T06:04:53.809Z,4.13
2022-09-30T06:07:22.948Z,4.29
2022-09-30T06:09:51.455Z,4.36
2022-09-30T06:12:19.266Z,4.42
2022-09-30T06:14:47.572Z,4.47
2022-09-30T06:17:18.506Z,4.60
2022-09-30T06:19:46.476Z,4.69
2022-09-30T06:22:14.268Z,4.76
2022-09-30T06:24:43.397Z,4.86
2022-09-30T06:27:11.348Z,4.97
2022-09-30T06:29:39.639Z,5.07
2022-09-30T06:32:08.025Z,5.25
2022-09-30T06:34:35.904Z,5.46
2022-09-30T06:37:04.059Z,5.65
2022-09-30T06:39:31.844Z,5.79
2022-09-30T06:42:00.982Z,6.03
2022-09-30T06:44:45.152Z,7.10
2022-09-30T06:47:23.266Z,8.81
2022-09-30T06:49:58.428Z,10.13
2022-09-30T06:52:27.225Z,11.66
2022-09-30T06:54:56.586Z,13.09
2022-09-30T06:57:27.693Z,14.77
2022-09-30T06:59:55.712Z,16.06
2022-09-30T07:02:23.528Z,16.76
2022-09-30T07:04:52.403Z,17.03
2022-09-30T07:07:25.012Z,17.17
2022-09-30T07:09:56.343Z,17.53
2022-09-30T07:12:28.875Z,17.40
2022-09-30T07:14:56.987Z,18.32
2022-09-30T07:17:24.825Z,17.54
2022-09-30T07:19:53.087Z,17.59
2022-09-30T07:22:35.637Z,17.32
2022-09-30T07:25:04.732Z,18.97
2022-09-30T07:27:34.283Z,19.15
2022-09-30T07:30:09.767Z,19.87
2022-09-30T07:32:39.677Z,20.55
2022-09-30T07:35:07.798Z,21.48
2022-09-30T07:37:36.829Z,21.49
2022-09-30T07:40:05.374Z,20.78
2022-09-30T07:42:37.493Z,20.44
2022-09-30T07:45:06.181Z,20.54
2022-09-30T07:47:34.006Z,21.11
2022-09-30T07:50:01.990Z,21.60
2022-09-30T07:52:29.962Z,21.74
2022-09-30T07:54:57.908Z,23.26
2022-09-30T07:57:25.767Z,24.06
2022-09-30T07:59:55.135Z,23.07
2022-09-30T08:02:24.560Z,23.28
2022-09-30T08:04:52.403Z,23.27
2022-09-30T08:07:21.030Z,24.86
2022-09-30T08:09:49.053Z,23.78
2022-09-30T08:12:16.957Z,23.71
2022-09-30T08:14:45.426Z,24.63
2022-09-30T08:17:15.063Z,23.26
2022-09-30T08:19:44.610Z,22.48
2022-09-30T08:22:13.845Z,23.37
2022-09-30T08:24:41.684Z,22.71
2022-09-30T08:27:09.673Z,23.47
2022-09-30T08:32:26.796Z,23.32
2022-09-30T08:34:54.567Z,26.21
2022-09-30T08:37:23.740Z,26.59
2022-09-30T08:39:51.502Z,28.25
2022-09-30T08:42:49.175Z,26.62
2022-09-30T08:45:20.949Z,24.40
2022-09-30T08:47:57.223Z,25.82
2022-09-30T08:50:30.748Z,26.43
2022-09-30T08:53:00.444Z,25.64
2022-09-30T08:55:32.488Z,23.77
2022-09-30T08:58:03.475Z,24.00
2022-09-30T09:00:31.686Z,24.98
2022-09-30T09:03:03.106Z,26.21
2022-09-30T09:05:35.260Z,26.43
2022-09-30T09:08:08.666Z,27.76
2022-09-30T09:10:42.085Z,27.74
2022-09-30T09:13:18.621Z,28.02
2022-09-30T09:15:51.899Z,28.81
2022-09-30T09:18:37.502Z,26.98
2022-09-30T09:21:23.370Z,27.68
2022-09-30T09:23:52.635Z,27.15
2022-09-30T09:26:20.603Z,28.28
2022-09-30T09:28:58.711Z,30.59
2022-09-30T09:31:27.095Z,30.26
2022-09-30T09:33:57.703Z,29.23
2022-09-30T09:36:33.879Z,27.47
2022-09-30T09:39:08.585Z,28.58
2022-09-30T09:41:41.223Z,29.20
2022-09-30T09:44:15.757Z,29.16
2022-09-30T09:46:46.505Z,29.56
2022-09-30T09:49:29.929Z,30.30
2022-09-30T09:52:15.838Z,31.88
2022-09-30T09:54:46.191Z,28.95
2022-09-30T09:57:15.948Z,27.03
2022-09-30T09:59:55.563Z,27.51
2022-09-30T10:02:24.089Z,28.28
2022-09-30T10:04:59.866Z,27.12
2022-09-30T10:07:29.760Z,28.23
2022-09-30T10:10:09.526Z,28.11
2022-09-30T10:12:37.451Z,29.02
2022-09-30T10:15:12.740Z,29.27
2022-09-30T10:17:40.982Z,30.23
2022-09-30T10:20:18.654Z,28.31
2022-09-30T10:22:48.260Z,27.78
2022-09-30T10:25:22.811Z,30.63
2022-09-30T10:27:53.163Z,27.90
2022-09-30T10:30:35.088Z,30.14
2022-09-30T10:33:04.520Z,27.70
2022-09-30T10:35:32.346Z,30.11
2022-09-30T10:38:01.383Z,30.79
2022-09-30T10:40:31.150Z,29.23
2022-09-30T10:42:59.377Z,31.49
2022-09-30T10:45:30.583Z,27.88
2022-09-30T10:47:59.972Z,24.87
2022-09-30T10:50:27.924Z,23.46
2022-09-30T10:52:58.819Z,21.77
2022-09-30T10:55:29.154Z,20.62
2022-09-30T10:58:00.642Z,21.93
2022-09-30T11:00:31.635Z,21.07
2022-09-30T11:03:01.919Z,20.60
2022-09-30T11:05:30.918Z,21.64
2022-09-30T11:08:02.070Z,20.37
2022-09-30T11:10:34.941Z,19.11
2022-09-30T11:13:08.314Z,25.42
2022-09-30T11:15:41.332Z,26.89
2022-09-30T11:18:18.228Z,25.12
2022-09-30T11:20:56.731Z,28.81
2022-09-30T11:23:29.467Z,33.38
2022-09-30T11:26:02.079Z,28.13
2022-09-30T11:28:38.138Z,27.29
2022-09-30T11:31:14.722Z,30.57
2022-09-30T11:33:50.198Z,24.85
2022-09-30T11:36:23.509Z,25.68
2022-09-30T11:39:06.386Z,26.87
2022-09-30T11:41:36.812Z,22.97
2022-09-30T11:44:12.366Z,23.12
2022-09-30T11:46:49.486Z,23.69
2022-09-30T11:49:28.209Z,28.88
2022-09-30T11:52:03.947Z,31.79
2022-09-30T11:54:36.221Z,29.84
2022-09-30T11:57:07.910Z,30.35
2022-09-30T11:59:40.286Z,28.82
2022-09-30T12:02:17.491Z,30.06
2022-09-30T12:04:46.370Z,29.46
2022-09-30T12:07:17.073Z,28.63
2022-09-30T12:09:47.227Z,30.75
2022-09-30T12:12:16.946Z,31.27
2022-09-30T12:14:48.123Z,28.04
2022-09-30T12:17:20.698Z,26.76
2022-09-30T12:19:50.913Z,26.60
2022-09-30T12:22:21.121Z,28.95
2022-09-30T12:24:48.969Z,28.50
2022-09-30T12:27:19.993Z,27.11
2022-09-30T12:30:11.515Z,29.01
2022-09-30T12:32:58.420Z,27.52
2022-09-30T12:35:34.432Z,29.53
2022-09-30T12:38:09.490Z,30.52
2022-09-30T12:40:50.182Z,31.17
2022-09-30T12:43:42.900Z,28.85
2022-09-30T12:46:16.767Z,27.08
2022-09-30T12:48:47.318Z,26.96
2022-09-30T12:51:22.788Z,27.67
2022-09-30T12:53:52.601Z,25.01
2022-09-30T12:56:20.644Z,22.81
2022-09-30T12:58:51.009Z,24.26
2022-09-30T13:01:27.535Z,25.68
2022-09-30T13:04:15.767Z,23.46
2022-09-30T13:07:02.347Z,23.91
2022-09-30T13:09:31.545Z,25.60
2022-09-30T13:12:14.246Z,24.38
2022-09-30T13:14:43.888Z,21.25
2022-09-30T13:17:36.268Z,20.01
2022-09-30T13:20:36.575Z,21.85
2022-09-30T13:23:04.488Z,25.44
2022-09-30T13:25:53.870Z,21.90
2022-09-30T13:28:29.669Z,20.37
2022-09-30T13:31:12.679Z,20.06
2022-09-30T13:33:45.830Z,20.51
2022-09-30T13:36:28.592Z,24.38
2022-09-30T13:39:15.352Z,26.09
2022-09-30T13:41:45.111Z,22.56
2022-09-30T13:44:15.745Z,19.58
2022-09-30T13:46:47.759Z,22.01
2022-09-30T13:49:18.687Z,24.55
2022-09-30T13:51:48.630Z,20.30
2022-09-30T13:54:23.341Z,18.59
2022-09-30T13:56:52.363Z,21.03
2022-09-30T13:59:28.713Z,23.76
2022-09-30T14:02:06.869Z,22.75
2022-09-30T14:04:48.249Z,23.41
2022-09-30T14:07:29.343Z,21.66
2022-09-30T14:10:09.194Z,25.09
2022-09-30T14:12:52.150Z,26.55
2022-09-30T14:15:38.167Z,23.30
2022-09-30T14:18:20.922Z,22.40
2022-09-30T14:20:59.400Z,21.29
2022-09-30T14:23:29.122Z,19.70
2022-09-30T14:26:00.829Z,19.42
2022-09-30T14:28:32.767Z,19.23
2022-09-30T14:31:13.141Z,19.44
2022-09-30T14:33:51.976Z,19.76
2022-09-30T14:36:21.764Z,19.67
2022-09-30T14:38:53.458Z,19.68
2022-09-30T14:41:23.257Z,18.50
2022-09-30T14:43:53.880Z,18.84
2022-09-30T14:46:27.605Z,18.73
2022-09-30T14:48:57.135Z,18.39
2022-09-30T14:51:27.415Z,17.78
2022-09-30T14:53:57.610Z,17.87
2022-09-30T14:56:29.431Z,18.04
2022-09-30T14:58:59.276Z,17.94
2022-09-30T15:01:30.289Z,17.68
2022-09-30T15:03:59.890Z,17.79
2022-09-30T15:06:29.421Z,17.35
2022-09-30T15:09:03.394Z,16.99
2022-09-30T15:11:37.214Z,17.03
2022-09-30T15:14:09.906Z,17.00
2022-09-30T15:16:45.432Z,16.72
2022-09-30T15:19:18.169Z,16.68
2022-09-30T15:21:48.390Z,16.68
2022-09-30T15:24:18.390Z,16.32
2022-09-30T15:26:48.996Z,16.12
2022-09-30T15:29:17.562Z,16.16
2022-09-30T15:31:47.105Z,15.90
2022-09-30T15:34:20.423Z,15.77
2022-09-30T15:36:57.867Z,15.58
2022-09-30T15:39:49.414Z,15.33
2022-09-30T15:42:28.934Z,15.27
2022-09-30T15:44:59.311Z,15.48
2022-09-30T15:47:28.562Z,15.52
2022-09-30T15:49:56.600Z,15.47
2022-09-30T15:52:29.324Z,15.33
2022-09-30T15:54:59.003Z,15.26
2022-09-30T15:57:45.521Z,15.20
2022-09-30T16:00:29.640Z,15.13
2022-09-30T16:03:06.944Z,15.06
2022-09-30T16:05:35.091Z,15.01
2022-09-30T16:08:07.834Z,15.07
2022-09-30T16:10:37.775Z,15.07
2022-09-30T16:13:07.021Z,14.99
2022-09-30T16:15:38.718Z,15.02
2022-09-30T16:18:07.032Z,14.94
2022-09-30T16:20:34.924Z,14.93
2022-09-30T16:23:04.253Z,14.90
2022-09-30T16:25:33.521Z,14.81
2022-09-30T16:28:03.424Z,14.73
2022-09-30T16:30:32.089Z,14.69
2022-09-30T16:33:03.775Z,14.62
2022-09-30T16:35:33.229Z,14.53
2022-09-30T16:38:02.159Z,14.39
2022-09-30T16:40:31.261Z,14.35
2022-09-30T16:43:01.355Z,14.35
2022-09-30T16:45:32.735Z,14.26
2022-09-30T16:48:01.666Z,14.32
2022-09-30T16:50:32.190Z,14.15
2022-09-30T16:53:00.100Z,13.94
2022-09-30T16:55:28.395Z,13.86
2022-09-30T16:57:57.953Z,13.83
2022-09-30T17:00:26.253Z,13.63
2022-09-30T17:02:55.773Z,13.56
2022-09-30T17:05:24.877Z,13.46
2022-09-30T17:07:53.856Z,13.32
2022-09-30T17:10:23.820Z,13.23
2022-09-30T17:12:52.104Z,13.29
2022-09-30T17:15:20.563Z,13.31
2022-09-30T17:17:48.601Z,13.29
2022-09-30T17:20:17.862Z,13.15
2022-09-30T17:22:45.971Z,13.18
2022-09-30T17:25:14.181Z,13.22
2022-09-30T17:27:42.206Z,13.14
2022-09-30T17:30:10.599Z,13.11
2022-09-30T17:32:38.671Z,13.08
2022-09-30T17:35:08.296Z,13.07
2022-09-30T17:37:41.302Z,13.17
2022-09-30T17:40:41.130Z,13.18
2022-09-30T17:43:11.186Z,13.17
2022-09-30T17:45:39.822Z,13.12
2022-09-30T17:48:08.813Z,13.03
2022-09-30T17:50:36.979Z,12.84
2022-09-30T17:53:07.646Z,12.74
2022-09-30T17:55:36.201Z,12.84
2022-09-30T17:58:04.187Z,12.75
2022-09-30T18:00:33.421Z,12.86
2022-09-30T18:03:02.764Z,13.00
2022-09-30T18:05:30.740Z,13.03
2022-09-30T18:07:58.775Z,13.03
2022-09-30T18:10:28.348Z,12.98
2022-09-30T18:12:56.454Z,12.88
2022-09-30T18:15:24.354Z,12.82
2022-09-30T18:17:52.241Z,12.70
2022-09-30T18:20:23.346Z,12.74
2022-09-30T18:22:53.589Z,12.64
2022-09-30T18:25:22.603Z,12.57
2022-09-30T18:27:53.257Z,12.56
2022-09-30T18:30:21.634Z,12.57
2022-09-30T18:32:50.433Z,12.59
2022-09-30T18:35:20.103Z,12.56
2022-09-30T18:37:49.578Z,12.62
2022-09-30T18:40:18.163Z,12.54
2022-09-30T18:42:46.263Z,12.48
2022-09-30T18:45:15.553Z,12.43
2022-09-30T18:47:44.803Z,12.36
2022-09-30T18:50:13.745Z,12.23
2022-09-30T18:52:41.885Z,12.14
2022-09-30T18:55:10.514Z,12.04
2022-09-30T18:57:39.008Z,11.97
2022-09-30T19:00:10.189Z,11.92
2022-09-30T19:02:40.625Z,11.85
2022-09-30T19:05:09.064Z,11.69
2022-09-30T19:07:39.118Z,11.57
2022-09-30T19:10:07.970Z,11.51
2022-09-30T19:12:36.423Z,11.47
2022-09-30T19:15:04.765Z,11.31
2022-09-30T19:17:32.957Z,11.25
2022-09-30T19:20:02.396Z,11.15
2022-09-30T19:22:30.704Z,11.04
2022-09-30T19:24:58.603Z,11.08
2022-09-30T19:27:27.053Z,11.07
2022-09-30T19:29:59.201Z,11.22
2022-09-30T19:32:28.920Z,11.35
2022-09-30T19:35:05.346Z,11.30
2022-09-30T19:37:35.648Z,11.33
2022-09-30T19:40:16.726Z,11.26
2022-09-30T19:42:48.982Z,11.34
2022-09-30T19:45:17.530Z,11.29
2022-09-30T19:47:45.907Z,11.32
2022-09-30T19:50:13.878Z,11.28
2022-09-30T19:52:55.057Z,11.19
2022-09-30T19:55:25.443Z,11.20
2022-09-30T19:57:53.387Z,11.23
2022-09-30T20:00:21.611Z,11.30
2022-09-30T20:02:50.606Z,11.21
2022-09-30T20:05:18.849Z,11.17
2022-09-30T20:07:50.866Z,11.12
2022-09-30T20:10:19.367Z,11.11
2022-09-30T20:12:47.321Z,10.99
2022-09-30T20:15:32.918Z,10.95
2022-09-30T20:18:01.011Z,10.95
2022-09-30T20:20:42.133Z,10.83
2022-09-30T20:23:11.563Z,10.98
2022-09-30T20:25:39.497Z,11.04
2022-09-30T20:28:07.850Z,10.93
2022-09-30T20:30:39.539Z,10.91
2022-09-30T20:33:08.361Z,10.92
2022-09-30T20:35:36.570Z,10.88
2022-09-30T20:38:04.613Z,11.01
2022-09-30T20:40:35.216Z,11.16
2022-09-30T20:43:03.997Z,11.14
2022-09-30T20:45:31.977Z,11.26
2022-09-30T20:47:59.958Z,11.42
2022-09-30T20:50:36.772Z,11.46
2022-09-30T20:53:06.144Z,11.54
2022-09-30T20:55:36.345Z,11.58
2022-09-30T20:58:04.917Z,11.55
2022-09-30T21:00:34.094Z,11.57
2022-09-30T21:03:02.106Z,11.57
2022-09-30T21:05:30.968Z,11.53
2022-09-30T21:07:59.275Z,11.63
2022-09-30T21:10:28.385Z,11.64
2022-09-30T21:12:58.676Z,11.67
2022-09-30T21:15:26.652Z,11.75
2022-09-30T21:17:54.843Z,11.71
2022-09-30T21:20:22.806Z,11.75
2022-09-30T21:22:53.290Z,11.77
2022-09-30T21:25:21.661Z,11.75
2022-09-30T21:27:49.900Z,11.86
2022-09-30T21:30:19.249Z,11.84
2022-09-30T21:32:47.243Z,11.75
2022-09-30T21:35:15.281Z,11.76
2022-09-30T21:37:43.988Z,11.82
2022-09-30T21:40:12.394Z,11.86
2022-09-30T21:42:40.282Z,11.90
2022-09-30T21:45:08.741Z,11.90
2022-09-30T21:47:38.029Z,11.87
2022-09-30T21:50:06.746Z,11.83
2022-09-30T21:52:34.763Z,11.90
2022-09-30T21:55:02.983Z,11.92
2022-09-30T21:57:30.858Z,12.03
2022-09-30T21:59:58.743Z,11.98
2022-09-30T22:02:26.837Z,12.12
2022-09-30T22:04:56.271Z,12.03
2022-09-30T22:07:25.079Z,12.13
2022-09-30T22:09:53.072Z,12.22
2022-09-30T22:12:22.139Z,12.13
2022-09-30T22:14:50.056Z,12.05
2022-09-30T22:17:18.105Z,12.14
2022-09-30T22:19:46.036Z,12.16
2022-09-30T22:22:15.309Z,12.04
2022-09-30T22:24:43.218Z,12.04
2022-09-30T22:27:11.283Z,12.06
2022-09-30T22:29:39.327Z,12.09
2022-09-30T22:32:07.296Z,12.13
2022-09-30T22:34:53.012Z,12.16
2022-09-30T22:37:51.191Z,12.21
2022-09-30T22:40:19.228Z,12.23
2022-09-30T22:42:48.905Z,12.14
2022-09-30T22:45:16.866Z,12.17
2022-09-30T22:47:45.713Z,12.18
2022-09-30T22:50:13.838Z,12.22
2022-09-30T22:52:43.352Z,12.14
2022-09-30T22:55:11.306Z,12.16
2022-09-30T22:57:39.271Z,12.18
2022-09-30T23:00:07.870Z,12.19
2022-09-30T23:02:35.805Z,12.16
2022-09-30T23:05:04.274Z,12.27
2022-09-30T23:07:32.197Z,12.25
2022-09-30T23:10:01.461Z,12.12
2022-09-30T23:12:30.082Z,12.28
2022-09-30T23:14:58.371Z,12.24
2022-09-30T23:17:26.797Z,12.27
2022-09-30T23:19:54.847Z,12.24
2022-09-30T23:22:22.842Z,12.21
2022-09-30T23:24:50.774Z,12.26
2022-09-30T23:27:20.059Z,12.29
2022-09-30T23:29:48.085Z,12.29
2022-09-30T23:32:43.867Z,12.26
2022-09-30T23:35:12.983Z,12.30
2022-09-30T23:37:40.968Z,12.28
2022-09-30T23:40:09.910Z,12.28
2022-09-30T23:42:39.161Z,12.32
2022-09-30T23:45:07.652Z,12.30
2022-09-30T23:47:35.746Z,12.27
2022-09-30T23:50:03.787Z,12.21
2022-09-30T23:52:31.745Z,12.25
2022-09-30T23:54:59.697Z,12.28
2022-09-30T23:57:27.640Z,12.31
2022-09-30T23:59:57.037Z,12.31
